Time;durP1;ratioP1;P1;durP2;ratioP2;P2;SDS_P1;SDS_P2;PMS_P1;PMS_P2;Temp;Humidity;BMP_temperature;BMP_pressure;BME280_temperature;BME280_humidity;BME280_pressure;Samples;Min_cycle;Max_cycle;Signal;HPM_P1;HPM_P2
2023/04/18 00:00:30;;;;;;;6.70;5.20;;;;;;;12.19;100.00;101241.06;2080494;28;20196;-70
2023/04/18 00:01:32;;;;;;;6.07;5.47;;;;;;;11.83;100.00;101193.75;2080745;28;20193;-69
2023/04/18 00:02:35;;;;;;;6.17;5.53;;;;;;;12.27;100.00;101259.13;2081771;28;20177;-69
2023/04/18 00:03:36;;;;;;;7.17;5.37;;;;;;;12.15;100.00;101237.56;2081568;28;20480;-70
2023/04/18 00:04:37;;;;;;;6.37;5.43;;;;;;;12.40;100.00;101260.81;2081760;28;20419;-69
2023/04/18 00:05:37;;;;;;;6.80;5.10;;;;;;;12.48;100.00;101262.25;2081920;28;20988;-69
2023/04/18 00:06:38;;;;;;;5.90;5.30;;;;;;;12.47;100.00;101265.44;2081949;28;20198;-70
2023/04/18 00:07:38;;;;;;;5.87;4.87;;;;;;;12.38;100.00;101260.47;2081165;28;20635;-69
2023/04/18 00:08:39;;;;;;;6.33;5.47;;;;;;;12.34;100.00;101267.34;2081901;28;20735;-69
2023/04/18 00:09:40;;;;;;;6.07;5.20;;;;;;;12.36;100.00;101257.34;2081653;28;20668;-70
2023/04/18 00:10:41;;;;;;;6.60;5.40;;;;;;;12.41;100.00;101258.84;2081274;28;20177;-69
2023/04/18 00:11:41;;;;;;;6.10;5.40;;;;;;;12.10;100.00;101190.81;2080889;28;20427;-69
2023/04/18 00:12:42;;;;;;;6.33;5.10;;;;;;;12.55;100.00;101258.53;2081704;28;20182;-70
2023/04/18 00:13:43;;;;;;;5.50;4.67;;;;;;;12.47;100.00;101254.34;2081983;28;20205;-69
2023/04/18 00:14:43;;;;;;;5.53;5.00;;;;;;;12.42;100.00;101263.19;2081761;28;20644;-69
2023/04/18 00:15:45;;;;;;;5.77;5.13;;;;;;;12.47;100.00;101262.66;2081302;28;20845;-70
2023/04/18 00:16:45;;;;;;;5.93;5.00;;;;;;;12.49;100.00;101268.56;2081757;28;20184;-70
2023/04/18 00:17:47;;;;;;;6.20;5.07;;;;;;;12.50;100.00;101265.38;2080945;28;20533;-69
2023/04/18 00:18:47;;;;;;;5.27;4.73;;;;;;;12.45;100.00;101249.19;2078020;28;20182;-70
2023/04/18 00:19:47;;;;;;;5.10;4.37;;;;;;;12.48;100.00;101253.13;2081539;28;20418;-69
2023/04/18 00:20:48;;;;;;;5.77;5.10;;;;;;;12.67;100.00;101261.44;2081287;28;20184;-70
2023/04/18 00:21:48;;;;;;;5.73;4.80;;;;;;;12.62;100.00;101266.72;2081196;28;20186;-69
2023/04/18 00:22:49;;;;;;;6.13;4.37;;;;;;;12.59;100.00;101264.78;2081813;28;20581;-69
2023/04/18 00:23:49;;;;;;;5.40;4.60;;;;;;;12.51;100.00;101264.16;2080598;28;20195;-69
2023/04/18 00:24:50;;;;;;;5.20;4.70;;;;;;;12.51;100.00;101272.50;2081779;28;20193;-69
2023/04/18 00:25:51;;;;;;;5.73;4.27;;;;;;;12.57;100.00;101270.00;2081578;28;20244;-70
2023/04/18 00:26:51;;;;;;;7.20;4.50;;;;;;;12.52;100.00;101274.09;2081382;28;20824;-70
2023/04/18 00:27:52;;;;;;;4.67;4.27;;;;;;;12.52;100.00;101260.19;2081356;28;20192;-70
2023/04/18 00:28:52;;;;;;;5.07;4.43;;;;;;;12.49;100.00;101269.38;2081639;28;20228;-69
2023/04/18 00:29:52;;;;;;;6.00;4.30;;;;;;;12.49;100.00;101272.16;2081177;28;20233;-70
2023/04/18 00:30:53;;;;;;;5.70;4.60;;;;;;;12.48;100.00;101267.81;2081576;28;20194;-69
2023/04/18 00:31:53;;;;;;;7.63;4.67;;;;;;;10.85;100.00;101012.50;2081444;28;20198;-69
2023/04/18 00:32:54;;;;;;;6.47;4.57;;;;;;;12.37;100.00;101255.34;2081310;28;20196;-69
2023/04/18 00:33:54;;;;;;;5.60;5.00;;;;;;;12.40;100.00;101263.59;2081585;28;20227;-70
2023/04/18 00:34:54;;;;;;;6.23;5.07;;;;;;;12.06;100.00;101204.78;2081673;28;20198;-70
2023/04/18 00:35:55;;;;;;;7.50;4.80;;;;;;;12.47;100.00;101265.44;2081243;28;20203;-70
2023/04/18 00:36:55;;;;;;;6.53;5.53;;;;;;;12.44;100.00;101269.06;2081027;28;20254;-70
2023/04/18 00:37:56;;;;;;;5.67;4.47;;;;;;;12.43;100.00;101264.75;2081650;28;20189;-69
2023/04/18 00:38:56;;;;;;;6.07;5.00;;;;;;;12.48;100.00;101267.00;2081730;28;20201;-70
2023/04/18 00:39:56;;;;;;;7.47;4.90;;;;;;;12.46;100.00;101272.22;2079608;28;20232;-70
2023/04/18 00:40:57;;;;;;;6.03;5.43;;;;;;;12.50;100.00;101259.03;2081006;28;20263;-69
2023/04/18 00:41:57;;;;;;;7.50;5.50;;;;;;;12.46;100.00;101245.19;2081290;28;20213;-70
2023/04/18 00:42:58;;;;;;;6.00;5.20;;;;;;;12.47;100.00;101257.91;2080935;28;20225;-69
2023/04/18 00:43:58;;;;;;;8.43;5.90;;;;;;;12.18;100.00;101248.59;2080964;28;20179;-69
2023/04/18 00:45:00;;;;;;;7.33;5.70;;;;;;;12.19;100.00;101250.16;2081341;28;20567;-69
2023/04/18 00:46:00;;;;;;;8.57;6.03;;;;;;;12.19;100.00;101257.72;2081616;28;20178;-69
2023/04/18 00:47:00;;;;;;;7.33;5.80;;;;;;;12.18;100.00;101258.91;2081215;28;20541;-70
2023/04/18 00:48:01;;;;;;;8.03;6.17;;;;;;;12.20;100.00;101267.63;2081408;28;20203;-70
2023/04/18 00:49:02;;;;;;;8.17;6.00;;;;;;;12.23;100.00;101256.44;2081739;28;20373;-70
2023/04/18 00:50:02;;;;;;;9.30;6.37;;;;;;;12.25;100.00;101258.78;2080835;28;20195;-69
2023/04/18 00:51:03;;;;;;;9.03;6.17;;;;;;;12.33;100.00;101257.41;2081250;28;20185;-70
2023/04/18 00:52:03;;;;;;;7.47;5.93;;;;;;;12.36;100.00;101264.91;2079942;28;20274;-69
2023/04/18 00:53:05;;;;;;;8.03;6.20;;;;;;;12.38;100.00;101266.03;2080293;28;20204;-69
2023/04/18 00:54:06;;;;;;;9.47;6.27;;;;;;;12.38;100.00;101262.47;2081354;28;20179;-69
2023/04/18 00:55:07;;;;;;;8.60;6.50;;;;;;;12.42;100.00;101260.41;2081509;28;20435;-69
2023/04/18 00:56:08;;;;;;;7.77;6.60;;;;;;;11.79;100.00;101158.94;2081333;28;20482;-69
2023/04/18 00:57:09;;;;;;;8.47;6.43;;;;;;;12.51;100.00;101263.38;2080969;28;20525;-70
2023/04/18 00:58:10;;;;;;;8.37;6.80;;;;;;;12.45;100.00;101249.19;2081308;28;20256;-69
2023/04/18 00:59:12;;;;;;;9.27;6.37;;;;;;;12.50;100.00;101259.03;2081499;28;20187;-69
2023/04/18 01:00:13;;;;;;;9.43;6.97;;;;;;;12.52;100.00;101265.75;2080643;28;20442;-69
2023/04/18 01:01:14;;;;;;;7.83;6.47;;;;;;;12.42;100.00;101260.41;2081395;28;20418;-69
2023/04/18 01:02:16;;;;;;;9.30;6.07;;;;;;;12.37;100.00;101260.91;2081187;28;20419;-69
2023/04/18 01:03:17;;;;;;;8.27;6.77;;;;;;;12.32;100.00;101267.75;2079253;28;20514;-69
2023/04/18 01:04:17;;;;;;;9.50;6.83;;;;;;;12.36;100.00;101265.69;2080242;28;20452;-69
2023/04/18 01:05:19;;;;;;;10.97;6.93;;;;;;;12.41;100.00;101267.19;2081216;28;20567;-69
2023/04/18 01:06:20;;;;;;;9.60;6.63;;;;;;;12.42;100.00;101265.97;2081224;28;20192;-70
2023/04/18 01:07:21;;;;;;;7.27;6.57;;;;;;;12.48;100.00;101289.25;2080940;28;20935;-69
2023/04/18 01:08:22;;;;;;;11.00;7.17;;;;;;;12.46;100.00;101264.66;2081280;28;20187;-69
2023/04/18 01:09:24;;;;;;;10.33;7.30;;;;;;;12.49;100.00;101272.16;2081270;28;20176;-69
2023/04/18 01:10:25;;;;;;;11.93;7.13;;;;;;;12.14;100.00;101213.75;2080819;28;20281;-69
2023/04/18 01:11:26;;;;;;;8.33;6.73;;;;;;;12.53;100.00;101261.75;2081141;28;20931;-69
2023/04/18 01:12:26;;;;;;;11.17;7.30;;;;;;;12.45;100.00;101259.56;2081342;28;20857;-70
2023/04/18 01:13:27;;;;;;;9.53;6.97;;;;;;;12.34;100.00;101259.75;2081350;28;20191;-69
2023/04/18 01:14:27;;;;;;;8.47;6.87;;;;;;;12.35;100.00;101264.09;2080650;28;20227;-69
2023/04/18 01:15:27;;;;;;;10.13;7.40;;;;;;;12.35;100.00;101264.09;2080932;28;20288;-70
2023/04/18 01:16:31;;;;;;;11.20;7.07;;;;;;;11.27;100.00;101100.44;2081232;28;20195;-69
2023/04/18 01:17:34;;;;;;;10.87;7.70;;;;;;;11.76;100.00;101193.09;2080802;28;20204;-69
2023/04/18 01:18:35;;;;;;;9.07;7.13;;;;;;;11.94;100.00;101260.97;2081244;28;20891;-69
2023/04/18 01:19:39;;;;;;;11.53;7.57;;;;;;;11.92;100.00;101257.84;2081055;28;20427;-69
2023/04/18 01:20:48;;;;;;;10.33;8.00;;;;;;;11.94;100.00;101262.97;2080707;28;20510;-69
2023/04/18 01:21:48;;;;;;;10.30;7.47;;;;;;;11.94;100.00;101260.97;2081108;28;20970;-69
2023/04/18 01:22:49;;;;;;;9.87;7.77;;;;;;;11.91;100.00;101266.59;2081499;28;20811;-69
2023/04/18 01:23:51;;;;;;;11.30;7.50;;;;;;;11.14;100.00;101151.41;2081223;28;20722;-69
2023/04/18 01:24:52;;;;;;;12.33;7.57;;;;;;;11.88;100.00;101261.91;2080751;28;20263;-69
2023/04/18 01:25:52;;;;;;;8.90;7.30;;;;;;;11.76;100.00;101251.41;2081049;28;20431;-69
2023/04/18 01:26:52;;;;;;;11.33;7.57;;;;;;;11.71;100.00;101261.03;2080820;28;20217;-69
2023/04/18 01:27:53;;;;;;;11.33;8.10;;;;;;;11.64;100.00;101268.69;2080973;28;20199;-70
2023/04/18 01:28:54;;;;;;;11.63;7.60;;;;;;;11.63;100.00;101275.47;2079703;28;20173;-69
2023/04/18 01:29:54;;;;;;;10.27;8.00;;;;;;;11.62;100.00;101271.88;2072605;28;20190;-69
2023/04/18 01:30:55;;;;;;;11.87;7.73;;;;;;;11.54;100.00;101262.06;2081388;28;20210;-69
2023/04/18 01:31:55;;;;;;;10.77;8.27;;;;;;;11.61;100.00;101267.56;2073656;28;20255;-69
2023/04/18 01:32:56;;;;;;;11.97;8.30;;;;;;;11.65;100.00;101271.06;2079388;28;20285;-69
2023/04/18 01:33:56;;;;;;;10.70;7.70;;;;;;;11.58;100.00;101270.38;2075882;28;20542;-69
2023/04/18 01:34:57;;;;;;;10.87;8.13;;;;;;;11.52;100.00;101272.06;2076650;28;20613;-69
2023/04/18 01:35:57;;;;;;;15.00;8.23;;;;;;;11.57;100.00;101274.31;2077777;28;20209;-69
2023/04/18 01:36:58;;;;;;;12.47;8.60;;;;;;;10.78;100.00;101133.81;2073265;28;20234;-69
2023/04/18 01:37:59;;;;;;;11.33;8.80;;;;;;;11.76;100.00;101293.06;2080323;28;20177;-69
2023/04/18 01:38:59;;;;;;;11.87;8.00;;;;;;;11.76;100.00;101256.97;2081447;28;20255;-69
2023/04/18 01:40:00;;;;;;;10.80;8.50;;;;;;;11.62;100.00;101230.25;2080446;28;20192;-69
2023/04/18 01:41:01;;;;;;;9.87;8.13;;;;;;;11.82;100.00;101256.06;2081159;28;20271;-69
2023/04/18 01:42:01;;;;;;;10.37;7.60;;;;;;;11.93;100.00;101270.50;2080882;28;20176;-69
2023/04/18 01:43:02;;;;;;;11.40;8.00;;;;;;;12.02;100.00;101276.31;2081170;28;20567;-69
2023/04/18 01:44:03;;;;;;;10.33;8.03;;;;;;;12.07;100.00;101269.44;2081065;28;20536;-69
2023/04/18 01:45:05;;;;;;;12.33;8.60;;;;;;;12.13;100.00;101262.97;2081089;28;20187;-69
2023/04/18 01:46:05;;;;;;;10.60;7.97;;;;;;;11.86;100.00;101225.44;2079506;28;20415;-69
2023/04/18 01:47:05;;;;;;;9.90;7.90;;;;;;;11.38;100.00;101153.75;2072546;28;20423;-69
2023/04/18 01:48:06;;;;;;;11.50;8.07;;;;;;;12.17;100.00;101269.25;2080731;28;20194;-69
2023/04/18 01:49:07;;;;;;;13.17;8.50;;;;;;;12.20;100.00;101271.16;2074344;28;20690;-69
2023/04/18 01:50:08;;;;;;;11.70;8.10;;;;;;;12.19;100.00;101260.50;2077929;28;20619;-69
2023/04/18 01:51:08;;;;;;;10.97;7.93;;;;;;;12.23;100.00;101266.75;2076442;28;20423;-69
2023/04/18 01:52:09;;;;;;;10.70;8.10;;;;;;;12.27;100.00;101271.03;2079333;28;20205;-69
2023/04/18 01:53:09;;;;;;;12.30;8.80;;;;;;;12.26;100.00;101263.13;2087227;28;20811;-69
2023/04/18 01:54:10;;;;;;;12.00;8.17;;;;;;;12.20;100.00;101257.25;2080764;28;20176;-69
2023/04/18 01:55:10;;;;;;;11.60;8.33;;;;;;;12.22;100.00;101268.75;2081230;28;20173;-69
2023/04/18 01:56:11;;;;;;;10.33;7.87;;;;;;;12.19;100.00;101266.81;2071106;28;20771;-69
2023/04/18 01:57:11;;;;;;;10.53;8.57;;;;;;;12.09;100.00;101272.59;2079255;28;20270;-69
2023/04/18 01:58:11;;;;;;;11.83;8.77;;;;;;;12.10;100.00;101265.84;2075213;28;20645;-69
2023/04/18 01:59:12;;;;;;;10.73;8.40;;;;;;;12.01;100.00;101257.28;2077461;28;20273;-69
2023/04/18 02:00:13;;;;;;;14.27;9.27;;;;;;;12.13;100.00;101270.53;2076986;28;20497;-69
2023/04/18 02:01:13;;;;;;;11.43;8.50;;;;;;;12.15;100.00;101270.91;2074865;28;20182;-69
2023/04/18 02:02:13;;;;;;;11.17;9.00;;;;;;;12.10;100.00;101274.94;2080774;28;20666;-69
2023/04/18 02:03:14;;;;;;;14.07;9.13;;;;;;;12.11;100.00;101272.94;2081079;28;20673;-69
2023/04/18 02:04:14;;;;;;;10.90;9.00;;;;;;;12.07;100.00;101273.03;2080842;28;20233;-69
2023/04/18 02:05:15;;;;;;;12.10;8.20;;;;;;;12.07;100.00;101272.22;2073965;28;20221;-69
2023/04/18 02:06:15;;;;;;;11.07;8.80;;;;;;;11.87;100.00;101254.75;2078373;28;20267;-69
2023/04/18 02:07:16;;;;;;;9.33;8.17;;;;;;;11.96;100.00;101272.44;2075345;28;20181;-69
2023/04/18 02:08:16;;;;;;;10.07;9.07;;;;;;;11.93;100.00;101273.28;2075929;28;20200;-69
2023/04/18 02:09:16;;;;;;;9.00;8.10;;;;;;;11.90;100.00;101267.81;2078769;28;20645;-69
2023/04/18 02:10:18;;;;;;;10.63;8.90;;;;;;;11.96;100.00;101275.22;2072897;28;20683;-69
2023/04/18 02:11:18;;;;;;;11.07;8.67;;;;;;;11.91;100.00;101274.94;2080971;28;20569;-69
2023/04/18 02:12:18;;;;;;;11.53;8.67;;;;;;;11.80;100.00;101269.59;2072678;28;20449;-69
2023/04/18 02:13:19;;;;;;;9.93;8.80;;;;;;;11.82;100.00;101283.81;2079628;28;20192;-69
2023/04/18 02:14:19;;;;;;;9.40;8.50;;;;;;;11.69;100.00;101282.09;2075073;28;20548;-69
2023/04/18 02:15:22;;;;;;;9.87;8.90;;;;;;;11.63;100.00;101286.56;2076966;28;20200;-69
2023/04/18 02:16:22;;;;;;;12.33;9.27;;;;;;;11.60;100.00;101279.06;2077087;28;20734;-69
2023/04/18 02:17:23;;;;;;;11.53;9.00;;;;;;;11.60;100.00;101282.66;2073993;28;20862;-69
2023/04/18 02:18:24;;;;;;;12.47;9.27;;;;;;;11.58;100.00;101284.25;2080708;28;20181;-69
2023/04/18 02:19:25;;;;;;;11.00;9.40;;;;;;;11.59;100.00;101283.06;2079940;28;20684;-69
2023/04/18 02:20:32;;;;;;;9.77;8.83;;;;;;;11.62;100.00;101284.97;2079938;28;20420;-69
2023/04/18 02:21:32;;;;;;;12.73;8.83;;;;;;;11.56;100.00;101281.88;2080874;28;20251;-69
2023/04/18 02:22:33;;;;;;;10.63;9.13;;;;;;;11.52;100.00;101272.06;2080736;28;20497;-69
2023/04/18 02:23:33;;;;;;;12.20;9.37;;;;;;;11.62;100.00;101283.00;2080678;28;20193;-69
2023/04/18 02:24:34;;;;;;;13.57;8.97;;;;;;;11.69;100.00;101287.66;2080861;28;20204;-69
2023/04/18 02:25:34;;;;;;;9.63;8.63;;;;;;;11.68;100.00;101289.63;2080656;28;20192;-69
2023/04/18 02:26:35;;;;;;;11.43;8.47;;;;;;;11.64;100.00;101290.91;2080772;28;20187;-69
2023/04/18 02:27:35;;;;;;;10.13;8.77;;;;;;;11.60;100.00;101274.31;2079620;28;20173;-69
2023/04/18 02:28:37;;;;;;;11.53;8.80;;;;;;;11.71;100.00;101288.00;2080711;28;20268;-69
2023/04/18 02:29:38;;;;;;;9.40;8.40;;;;;;;11.75;100.00;101291.50;2072569;28;20268;-69
2023/04/18 02:30:38;;;;;;;9.60;8.07;;;;;;;11.79;100.00;101295.75;2079246;28;20443;-69
2023/04/18 02:31:39;;;;;;;10.53;7.83;;;;;;;11.73;100.00;101289.13;2080513;28;20182;-69
2023/04/18 02:32:40;;;;;;;11.40;8.27;;;;;;;11.79;100.00;101292.22;2080580;28;20253;-69
2023/04/18 02:33:41;;;;;;;11.90;8.47;;;;;;;11.63;100.00;101269.91;2076838;28;20434;-69
2023/04/18 02:34:42;;;;;;;11.87;7.80;;;;;;;11.75;100.00;101289.50;2075166;28;20751;-69
2023/04/18 02:35:42;;;;;;;8.97;8.03;;;;;;;11.69;100.00;101285.63;2079763;28;20834;-69
2023/04/18 02:36:43;;;;;;;10.20;7.67;;;;;;;11.62;100.00;101293.31;2079886;28;20559;-69
2023/04/18 02:37:43;;;;;;;11.17;8.33;;;;;;;11.67;100.00;101290.03;2080249;28;20576;-69
2023/04/18 02:38:44;;;;;;;9.27;8.00;;;;;;;11.75;100.00;101289.50;2080130;28;20196;-69
2023/04/18 02:39:44;;;;;;;10.00;8.20;;;;;;;11.77;100.00;101287.09;2080509;28;20280;-69
2023/04/18 02:40:45;;;;;;;12.73;7.63;;;;;;;11.83;100.00;101293.72;2080390;28;20631;-69
2023/04/18 02:41:45;;;;;;;8.83;7.83;;;;;;;11.83;100.00;101293.72;2080530;28;20187;-69
2023/04/18 02:42:45;;;;;;;9.13;7.87;;;;;;;11.86;100.00;101297.63;2080654;28;20197;-69
2023/04/18 02:43:46;;;;;;;8.80;7.53;;;;;;;11.86;100.00;101287.31;2080471;28;20185;-69
2023/04/18 02:44:46;;;;;;;8.63;7.63;;;;;;;11.81;100.00;101285.03;2080575;28;20689;-69
2023/04/18 02:45:47;;;;;;;12.20;7.83;;;;;;;11.88;100.00;101293.22;2080658;28;20184;-69
2023/04/18 02:46:47;;;;;;;10.03;8.03;;;;;;;11.90;100.00;101303.91;2080512;28;20273;-69
2023/04/18 02:47:48;;;;;;;9.77;8.10;;;;;;;11.94;100.00;101279.66;2080212;28;20263;-69
2023/04/18 02:48:48;;;;;;;10.43;8.00;;;;;;;11.93;100.00;101284.41;2079997;28;20259;-69
2023/04/18 02:49:48;;;;;;;9.10;7.63;;;;;;;11.78;100.00;101268.44;2080335;28;20250;-69
2023/04/18 02:50:49;;;;;;;10.43;7.63;;;;;;;11.77;100.00;101287.09;2080361;28;20184;-69
2023/04/18 02:51:53;;;;;;;10.33;8.20;;;;;;;11.72;100.00;101286.78;2080328;28;20180;-69
2023/04/18 02:52:54;;;;;;;9.43;8.03;;;;;;;11.59;100.00;101263.63;2080514;28;20173;-69
2023/04/18 02:53:55;;;;;;;10.57;8.10;;;;;;;11.78;100.00;101291.44;2080694;28;20542;-69
2023/04/18 02:54:55;;;;;;;9.53;7.67;;;;;;;11.55;100.00;101237.88;2072663;28;20452;-69
2023/04/18 02:55:56;;;;;;;10.57;8.30;;;;;;;11.44;100.00;101212.31;2079021;28;20296;-69
2023/04/18 02:56:56;;;;;;;10.70;7.93;;;;;;;11.93;100.00;101278.09;2080186;28;20646;-69
2023/04/18 02:57:57;;;;;;;8.70;7.80;;;;;;;11.95;100.00;101281.22;2080370;28;20636;-69
2023/04/18 02:58:57;;;;;;;9.53;7.10;;;;;;;11.96;100.00;101277.22;2080320;28;20535;-69
2023/04/18 02:59:58;;;;;;;11.53;8.23;;;;;;;11.87;100.00;101285.31;2079585;28;20177;-69
2023/04/18 03:00:58;;;;;;;9.07;7.63;;;;;;;11.55;100.00;101229.56;2080368;28;20177;-69
2023/04/18 03:01:58;;;;;;;10.10;8.23;;;;;;;11.12;100.00;101168.47;2080639;28;20252;-69
2023/04/18 03:02:59;;;;;;;10.33;8.07;;;;;;;11.38;100.00;101212.00;2080661;28;20181;-69
2023/04/18 03:03:59;;;;;;;8.93;8.03;;;;;;;11.62;100.00;101246.91;2078960;28;20251;-69
2023/04/18 03:05:00;;;;;;;11.87;8.27;;;;;;;11.91;100.00;101286.03;2080428;28;20291;-69
2023/04/18 03:06:00;;;;;;;9.87;8.37;;;;;;;11.90;100.00;101279.72;2080380;28;20184;-69
2023/04/18 03:07:01;;;;;;;9.17;8.07;;;;;;;11.96;100.00;101280.00;2079858;28;20276;-69
2023/04/18 03:08:01;;;;;;;12.67;9.07;;;;;;;11.89;100.00;101282.91;2080335;28;20229;-69
2023/04/18 03:09:02;;;;;;;11.80;8.07;;;;;;;11.93;100.00;101278.84;2080544;28;20555;-69
2023/04/18 03:10:03;;;;;;;11.60;8.10;;;;;;;12.02;100.00;101286.63;2079494;28;20631;-69
2023/04/18 03:11:03;;;;;;;11.10;8.03;;;;;;;12.00;100.00;101291.81;2080394;28;21016;-69
2023/04/18 03:12:04;;;;;;;10.70;8.90;;;;;;;11.98;100.00;101292.25;2080313;28;20274;-69
2023/04/18 03:13:04;;;;;;;9.83;8.20;;;;;;;11.58;100.00;101226.72;2074977;28;20663;-69
2023/04/18 03:14:05;;;;;;;8.77;7.90;;;;;;;11.91;100.00;101286.84;2076604;28;20230;-69
2023/04/18 03:15:06;;;;;;;11.90;8.50;;;;;;;11.73;100.00;101277.25;2080560;28;20723;-69
2023/04/18 03:16:06;;;;;;;10.93;8.43;;;;;;;11.84;100.00;101292.50;2080056;28;20204;-69
2023/04/18 03:17:07;;;;;;;10.07;8.23;;;;;;;11.79;100.00;101295.75;2080017;28;21002;-69
2023/04/18 03:18:07;;;;;;;11.60;8.77;;;;;;;11.75;100.00;101281.19;2080522;28;20584;-69
2023/04/18 03:19:08;;;;;;;10.60;8.47;;;;;;;11.14;100.00;101204.13;2080586;28;20268;-69
2023/04/18 03:20:09;;;;;;;10.70;8.67;;;;;;;11.76;100.00;101291.06;2079462;28;20197;-69
2023/04/18 03:21:10;;;;;;;11.50;8.73;;;;;;;11.68;100.00;101291.63;2080429;28;20185;-69
2023/04/18 03:22:11;;;;;;;9.27;8.33;;;;;;;11.72;100.00;101293.13;2080331;28;20447;-69
2023/04/18 03:23:12;;;;;;;10.50;8.87;;;;;;;11.74;100.00;101298.25;2077164;28;20495;-69
2023/04/18 03:24:12;;;;;;;9.50;8.10;;;;;;;11.72;100.00;101286.78;2074403;28;20499;-69
2023/04/18 03:25:12;;;;;;;9.60;8.23;;;;;;;11.77;100.00;101286.28;2079514;28;20235;-69
2023/04/18 03:26:13;;;;;;;10.73;8.30;;;;;;;11.27;100.00;101218.97;2072422;28;20173;-69
2023/04/18 03:27:13;;;;;;;9.67;8.17;;;;;;;11.80;100.00;101302.91;2079183;28;20200;-69
2023/04/18 03:28:14;;;;;;;10.30;8.70;;;;;;;11.72;100.00;101301.47;2079706;28;20196;-69
2023/04/18 03:29:14;;;;;;;9.83;8.70;;;;;;;11.63;100.00;101290.09;2078028;28;20188;-69
2023/04/18 03:30:16;;;;;;;10.23;9.10;;;;;;;11.26;100.00;101215.41;2078982;28;20224;-69
2023/04/18 03:31:16;;;;;;;11.80;8.77;;;;;;;11.22;100.00;101205.59;2079035;28;20189;-69
2023/04/18 03:32:17;;;;;;;10.27;8.67;;;;;;;11.93;100.00;101305.84;2080259;28;20511;-69
2023/04/18 03:33:17;;;;;;;10.80;8.03;;;;;;;11.95;100.00;101311.75;2080347;28;20662;-69
2023/04/18 03:34:18;;;;;;;9.40;7.97;;;;;;;11.98;100.00;101308.13;2080134;28;20174;-69
2023/04/18 03:35:18;;;;;;;9.17;8.27;;;;;;;11.97;100.00;101309.31;2080733;28;20200;-69
2023/04/18 03:36:24;;;;;;;9.47;7.97;;;;;;;12.00;100.00;101312.03;2080052;28;20201;-69
2023/04/18 03:37:24;;;;;;;14.30;8.50;;;;;;;12.02;100.00;101308.84;2079980;28;20199;-69
2023/04/18 03:38:24;;;;;;;9.37;7.97;;;;;;;12.04;100.00;101314.78;2080374;28;20447;-69
2023/04/18 03:39:25;;;;;;;9.43;8.43;;;;;;;12.02;100.00;101306.06;2080367;28;20189;-69
2023/04/18 03:40:25;;;;;;;9.07;8.03;;;;;;;12.01;100.00;101308.06;2076710;28;20268;-69
2023/04/18 03:41:26;;;;;;;10.33;8.57;;;;;;;12.09;100.00;101319.84;2073572;28;20667;-69
2023/04/18 03:42:27;;;;;;;10.47;7.97;;;;;;;12.08;100.00;101321.03;2079268;28;20735;-70
2023/04/18 03:43:27;;;;;;;9.90;8.20;;;;;;;12.04;100.00;101326.66;2072335;28;20443;-69
2023/04/18 03:44:28;;;;;;;9.67;8.47;;;;;;;11.88;100.00;101298.78;2079654;28;20232;-69
2023/04/18 03:45:29;;;;;;;8.87;7.40;;;;;;;12.04;100.00;101321.09;2079750;28;20239;-69
2023/04/18 03:46:29;;;;;;;11.57;7.93;;;;;;;11.94;100.00;101316.53;2086272;28;20180;-69
2023/04/18 03:47:30;;;;;;;9.80;7.70;;;;;;;12.02;100.00;101319.94;2083283;28;20193;-69
2023/04/18 03:48:34;;;;;;;9.10;8.17;;;;;;;12.06;100.00;101321.47;2080246;28;20197;-69
2023/04/18 03:49:35;;;;;;;10.40;7.70;;;;;;;12.02;100.00;101323.53;2080231;28;20454;-70
2023/04/18 03:50:35;;;;;;;10.47;8.13;;;;;;;11.93;100.00;101314.19;2079244;28;20433;-70
2023/04/18 03:51:43;;;;;;;10.00;8.20;;;;;;;11.81;100.00;101320.34;2079079;28;20668;-70
2023/04/18 03:52:43;;;;;;;11.97;8.57;;;;;;;11.75;100.00;101317.28;2080400;28;20552;-70
2023/04/18 03:53:43;;;;;;;10.63;8.63;;;;;;;11.75;100.00;101319.25;2080434;28;20424;-70
2023/04/18 03:54:44;;;;;;;9.77;8.77;;;;;;;11.69;100.00;101318.19;2080413;28;20193;-69
2023/04/18 03:55:44;;;;;;;9.20;8.27;;;;;;;11.65;100.00;101307.16;2079958;28;20192;-69
2023/04/18 03:56:45;;;;;;;9.97;8.30;;;;;;;11.66;100.00;101303.16;2080510;28;20258;-70
2023/04/18 03:57:46;;;;;;;9.07;8.17;;;;;;;11.13;100.00;101236.63;2079580;28;20726;-69
2023/04/18 03:58:47;;;;;;;9.47;8.47;;;;;;;11.63;100.00;101319.88;2080370;28;20189;-70
2023/04/18 03:59:47;;;;;;;9.43;8.20;;;;;;;11.63;100.00;101320.66;2080028;28;20974;-70
2023/04/18 04:00:49;;;;;;;9.67;7.93;;;;;;;11.69;100.00;101323.75;2079867;28;20204;-70
2023/04/18 04:01:50;;;;;;;9.03;8.13;;;;;;;11.05;100.00;101220.50;2075285;28;20189;-68
2023/04/18 04:02:50;;;;;;;10.30;7.60;;;;;;;11.75;100.00;101322.84;2071923;28;20996;-65
2023/04/18 04:03:51;;;;;;;11.33;7.90;;;;;;;11.74;100.00;101312.91;2073832;28;20201;-66
2023/04/18 04:04:51;;;;;;;10.90;7.70;;;;;;;11.85;100.00;101332.19;2071096;28;20221;-68
2023/04/18 04:05:52;;;;;;;9.73;8.07;;;;;;;11.88;100.00;101331.34;2077267;28;20249;-70
2023/04/18 04:06:53;;;;;;;12.27;8.43;;;;;;;11.95;100.00;101325.66;2076299;28;20578;-67
2023/04/18 04:07:53;;;;;;;8.97;8.03;;;;;;;11.90;100.00;101328.91;2072588;28;30850;-68
2023/04/18 04:08:53;;;;;;;11.23;8.13;;;;;;;11.86;100.00;101339.28;2072536;28;20174;-65
2023/04/18 04:09:54;;;;;;;12.20;8.00;;;;;;;11.89;100.00;101328.13;2071186;28;20197;-71
2023/04/18 04:10:54;;;;;;;10.80;7.73;;;;;;;11.92;100.00;101330.06;2071756;28;20625;-66
2023/04/18 04:11:55;;;;;;;8.60;7.63;;;;;;;11.84;100.00;101338.94;2071230;28;20216;-66
2023/04/18 04:12:55;;;;;;;9.13;7.80;;;;;;;11.68;100.00;101325.72;2071368;28;20200;-64
2023/04/18 04:13:55;;;;;;;10.33;8.03;;;;;;;11.73;100.00;101336.34;2072473;28;20205;-66
2023/04/18 04:14:56;;;;;;;11.97;7.97;;;;;;;11.76;100.00;101337.50;2074869;28;20228;-67
2023/04/18 04:15:56;;;;;;;10.00;8.23;;;;;;;11.74;100.00;101337.13;2074444;28;20278;-66
2023/04/18 04:16:57;;;;;;;11.30;8.20;;;;;;;11.76;100.00;101337.50;2071051;28;20200;-65
2023/04/18 04:17:57;;;;;;;11.07;8.40;;;;;;;11.74;100.00;101329.56;2071881;28;20218;-66
2023/04/18 04:18:58;;;;;;;9.63;7.87;;;;;;;11.80;100.00;101336.25;2073059;28;20189;-63
2023/04/18 04:19:58;;;;;;;9.87;8.50;;;;;;;11.84;100.00;101342.50;2078957;28;20199;-62
2023/04/18 04:20:59;;;;;;;9.53;8.40;;;;;;;11.73;100.00;101341.91;2076333;28;20584;-63
2023/04/18 04:22:00;;;;;;;9.70;8.67;;;;;;;11.78;100.00;101344.19;2075634;28;20189;-70
2023/04/18 04:23:00;;;;;;;12.00;8.67;;;;;;;11.85;100.00;101346.06;2074177;28;20702;-63
2023/04/18 04:24:01;;;;;;;12.97;8.13;;;;;;;11.89;100.00;101344.78;2073038;28;20198;-68
2023/04/18 04:25:03;;;;;;;11.27;8.53;;;;;;;11.91;100.00;101345.16;2077333;28;20704;-66
2023/04/18 04:26:04;;;;;;;10.33;8.17;;;;;;;11.67;100.00;101298.38;2073541;28;20190;-69
2023/04/18 04:27:04;;;;;;;9.17;7.30;;;;;;;11.93;100.00;101347.53;2071717;28;20424;-69
2023/04/18 04:28:05;;;;;;;8.53;7.63;;;;;;;11.85;100.00;101344.09;2072665;28;20273;-71
2023/04/18 04:29:05;;;;;;;11.17;8.73;;;;;;;11.88;100.00;101345.22;2078897;28;20191;-64
2023/04/18 04:30:07;;;;;;;10.00;8.47;;;;;;;11.88;100.00;101354.31;2072194;28;21457;-69
2023/04/18 04:31:09;;;;;;;9.40;8.40;;;;;;;10.97;100.00;101214.31;2075338;28;20190;-70
2023/04/18 04:32:09;;;;;;;10.30;8.27;;;;;;;11.71;100.00;101332.41;2076883;28;20460;-70
2023/04/18 04:33:10;;;;;;;8.97;8.07;;;;;;;11.76;100.00;101340.25;2072424;28;20428;-64
2023/04/18 04:34:10;;;;;;;9.77;7.80;;;;;;;11.76;100.00;101352.16;2075044;28;20231;-68
2023/04/18 04:35:11;;;;;;;11.93;8.33;;;;;;;11.68;100.00;101349.94;2071817;28;20562;-69
2023/04/18 04:36:13;;;;;;;8.13;7.33;;;;;;;11.72;100.00;101353.41;2074939;28;20207;-72
2023/04/18 04:37:14;;;;;;;10.40;8.37;;;;;;;11.81;100.00;101356.44;2071159;28;20189;-74
2023/04/18 04:38:14;;;;;;;12.07;9.73;;;;;;;11.39;100.00;101280.22;2077428;28;20972;-75